PWSweather.com
Personal Weather Stations
Station Observations
KNJOAKLA6
Oakland, NJ 07436

Oakland, NJ 07436

Lat: 41.041, Lon: -74.231

Elevation: 280

Station Type: Davis VP 2

http://stratacolorado.com/oaknjwx/

Latest ConditionsUpdated 11:10:00 AM EST Wednesday, Dec 7, 2016
Currently Today's Max Today's Min Today's Average
Temperature 38.4°F3.6°C 38.4°F3.6°C 33.2°F0.7°C 35.2°F1.8°C
Dew Point 37.4°F3.0°C 37.4°F3.0°C 31.7°F-0.2°C 34.0°F1.1°C
Winds Calm Calm 1.0 mph NNE1.6 kmh NNE - 0.1 mph 0.2 kmh
Wind Gusts 1.0 mph1.6 kmh 9.0 mph14.5 kmh - -
Humidity 96% 96% 94% 95%
Pressure 29.96 in1014.6 mb 30.00 in1015.9 mb 29.84 in1010.5 mb -
Precipitation - 0.23 in5.8 mm - -
Hour Temp Dew Point Humidity Winds Wind Gusts Pressure Precip Precip Rate Daily Precip Total
11:10 AM 38.4°F3.6°C 37.4°F3.0°C 96% Calm Calm 1.0 mph1.6 kmh 29.96 in1014.6 mb 0.03 in0.8 mm 0.06 in1.5 mm 0.23 in5.8 mm
11:00 AM 38.2°F3.4°C 37.2°F2.9°C 96% Calm Calm -- 29.97 in1014.9 mb 0.02 in0.5 mm 0.00 in0.0 mm 0.22 in5.6 mm
10:50 AM 37.9°F3.3°C 36.9°F2.7°C 96% Calm Calm -- 29.97 in1014.9 mb 0.03 in0.8 mm 0.06 in1.5 mm 0.22 in5.6 mm
10:40 AM 37.6°F3.1°C 36.6°F2.6°C 96% Calm Calm 1.0 mph1.6 kmh 29.98 in1015.2 mb 0.02 in0.5 mm 0.00 in0.0 mm 0.21 in5.3 mm
10:30 AM 37.3°F2.9°C 36.3°F2.4°C 96% Calm Calm -- 29.98 in1015.2 mb 0.02 in0.5 mm 0.00 in0.0 mm 0.21 in5.3 mm
10:20 AM 37.1°F2.8°C 36.1°F2.3°C 96% Calm Calm -- 29.99 in1015.6 mb 0.02 in0.5 mm 0.00 in0.0 mm 0.20 in5.1 mm
10:10 AM 36.9°F2.7°C 35.9°F2.2°C 96% Calm Calm -- 30.00 in1015.9 mb 0.02 in0.5 mm 0.00 in0.0 mm 0.20 in5.1 mm
10:00 AM 36.8°F2.7°C 35.8°F2.1°C 96% Calm Calm -- 30.00 in1015.9 mb 0.02 in0.5 mm 0.00 in0.0 mm 0.20 in5.1 mm
09:50 AM 36.6°F2.6°C 35.6°F2.0°C 96% Calm Calm -- 29.99 in1015.6 mb 0.02 in0.5 mm 0.00 in0.0 mm 0.19 in4.8 mm
09:40 AM 36.5°F2.5°C 35.5°F1.9°C 96% Calm Calm -- 29.98 in1015.2 mb 0.02 in0.5 mm 0.00 in0.0 mm 0.19 in4.8 mm
09:30 AM 36.4°F2.4°C 35.4°F1.9°C 96% Calm Calm 3.0 mph4.8 kmh 29.99 in1015.6 mb 0.02 in0.5 mm 0.00 in0.0 mm 0.19 in4.8 mm
09:20 AM 36.4°F2.4°C 35.4°F1.9°C 96% Calm Calm 1.0 mph1.6 kmh 29.99 in1015.6 mb 0.02 in0.5 mm 0.00 in0.0 mm 0.18 in4.6 mm
09:10 AM 36.3°F2.4°C 35.3°F1.8°C 96% Calm Calm -- 29.99 in1015.6 mb 0.02 in0.5 mm 0.00 in0.0 mm 0.18 in4.6 mm
09:00 AM 36.1°F2.3°C 35.1°F1.7°C 96% Calm Calm -- 29.99 in1015.6 mb 0.02 in0.5 mm 0.01 in0.3 mm 0.18 in4.6 mm
08:50 AM 36.0°F2.2°C 35.0°F1.7°C 96% Calm Calm 1.0 mph1.6 kmh 29.98 in1015.2 mb 0.01 in0.3 mm 0.00 in0.0 mm 0.17 in4.3 mm
08:40 AM 35.9°F2.2°C 34.9°F1.6°C 96% Calm Calm -- 29.98 in1015.2 mb 0.02 in0.5 mm 0.00 in0.0 mm 0.17 in4.3 mm
08:30 AM 35.8°F2.1°C 34.8°F1.6°C 96% Calm Calm -- 29.97 in1014.9 mb 0.02 in0.5 mm 0.06 in1.5 mm 0.17 in4.3 mm
08:20 AM 35.7°F2.1°C 34.7°F1.5°C 96% Calm Calm -- 29.96 in1014.6 mb 0.01 in0.3 mm 0.00 in0.0 mm 0.16 in4.1 mm
08:10 AM 35.6°F2.0°C 34.6°F1.4°C 96% Calm Calm -- 29.95 in1014.2 mb 0.01 in0.3 mm 0.00 in0.0 mm 0.16 in4.1 mm
08:00 AM 35.5°F1.9°C 34.5°F1.4°C 96% Calm Calm -- 29.95 in1014.2 mb 0.01 in0.3 mm 0.00 in0.0 mm 0.16 in4.1 mm
07:50 AM 35.4°F1.9°C 34.4°F1.3°C 96% Calm Calm -- 29.94 in1013.9 mb 0.01 in0.3 mm 0.00 in0.0 mm 0.16 in4.1 mm
07:40 AM 35.3°F1.8°C 34.3°F1.3°C 96% Calm Calm -- 29.93 in1013.5 mb 0.01 in0.3 mm 0.00 in0.0 mm 0.15 in3.8 mm
07:30 AM 35.3°F1.8°C 34.3°F1.3°C 96% Calm Calm -- 29.93 in1013.5 mb 0.01 in0.3 mm 0.00 in0.0 mm 0.15 in3.8 mm
07:20 AM 35.2°F1.8°C 34.2°F1.2°C 96% Calm Calm -- 29.93 in1013.5 mb 0.01 in0.3 mm 0.00 in0.0 mm 0.15 in3.8 mm
07:10 AM 35.2°F1.8°C 34.2°F1.2°C 96% Calm Calm -- 29.93 in1013.5 mb 0.01 in0.3 mm 0.00 in0.0 mm 0.15 in3.8 mm
07:00 AM 35.1°F1.7°C 34.1°F1.2°C 96% Calm Calm -- 29.93 in1013.5 mb 0.01 in0.3 mm 0.00 in0.0 mm 0.15 in3.8 mm
06:50 AM 35.1°F1.7°C 34.1°F1.2°C 96% Calm Calm 1.0 mph1.6 kmh 29.93 in1013.5 mb 0.01 in0.3 mm 0.06 in1.5 mm 0.15 in3.8 mm
06:40 AM 35.1°F1.7°C 34.1°F1.2°C 96% Calm Calm 1.0 mph1.6 kmh 29.92 in1013.2 mb 0.00 in0.0 mm 0.00 in0.0 mm 0.14 in3.6 mm
06:30 AM 35.1°F1.7°C 34.1°F1.2°C 96% Calm Calm 2.0 mph3.2 kmh 29.92 in1013.2 mb 0.01 in0.3 mm 0.00 in0.0 mm 0.14 in3.6 mm
06:20 AM 35.1°F1.7°C 34.1°F1.2°C 96% Calm Calm 2.0 mph3.2 kmh 29.92 in1013.2 mb 0.01 in0.3 mm 0.00 in0.0 mm 0.14 in3.6 mm
06:10 AM 35.1°F1.7°C 33.8°F1.0°C 95% Calm Calm 1.0 mph1.6 kmh 29.92 in1013.2 mb 0.01 in0.3 mm 0.00 in0.0 mm 0.14 in3.6 mm
06:00 AM 35.1°F1.7°C 33.8°F1.0°C 95% Calm Calm 4.0 mph6.4 kmh 29.92 in1013.2 mb 0.01 in0.3 mm 0.00 in0.0 mm 0.14 in3.6 mm
05:50 AM 35.1°F1.7°C 33.8°F1.0°C 95% Calm Calm 1.0 mph1.6 kmh 29.91 in1012.9 mb 0.01 in0.3 mm 0.06 in1.5 mm 0.14 in3.6 mm
05:40 AM 35.0°F1.7°C 33.7°F0.9°C 95% Calm Calm 2.0 mph3.2 kmh 29.91 in1012.9 mb 0.00 in0.0 mm 0.00 in0.0 mm 0.13 in3.3 mm
05:30 AM 35.0°F1.7°C 34.0°F1.1°C 96% Calm Calm 2.0 mph3.2 kmh 29.91 in1012.9 mb 0.01 in0.3 mm 0.00 in0.0 mm 0.13 in3.3 mm
05:20 AM 35.0°F1.7°C 34.0°F1.1°C 96% Calm Calm 1.0 mph1.6 kmh 29.90 in1012.5 mb 0.01 in0.3 mm 0.00 in0.0 mm 0.13 in3.3 mm
05:11 AM 34.8°F1.6°C 33.8°F1.0°C 96% Calm Calm 1.0 mph1.6 kmh 29.90 in1012.5 mb 0.01 in0.3 mm 0.00 in0.0 mm 0.13 in3.3 mm
05:00 AM 34.8°F1.6°C 33.5°F0.8°C 95% Calm Calm 1.0 mph1.6 kmh 29.90 in1012.5 mb 0.01 in0.3 mm 0.00 in0.0 mm 0.13 in3.3 mm
04:50 AM 34.8°F1.6°C 33.5°F0.8°C 95% Calm Calm 1.0 mph1.6 kmh 29.89 in1012.2 mb 0.01 in0.3 mm 0.00 in0.0 mm 0.13 in3.3 mm
04:40 AM 34.8°F1.6°C 33.5°F0.8°C 95% Calm Calm 1.0 mph1.6 kmh 29.88 in1011.9 mb 0.02 in0.5 mm 0.06 in1.5 mm 0.13 in3.3 mm
04:30 AM 34.8°F1.6°C 33.5°F0.8°C 95% Calm Calm 1.0 mph1.6 kmh 29.89 in1012.2 mb 0.01 in0.3 mm 0.00 in0.0 mm 0.12 in3.0 mm
04:20 AM 34.8°F1.6°C 33.5°F0.8°C 95% Calm Calm 1.0 mph1.6 kmh 29.89 in1012.2 mb 0.02 in0.5 mm 0.00 in0.0 mm 0.12 in3.0 mm
04:10 AM 34.8°F1.6°C 33.5°F0.8°C 95% Calm Calm -- 29.89 in1012.2 mb 0.02 in0.5 mm 0.00 in0.0 mm 0.12 in3.0 mm
04:00 AM 34.8°F1.6°C 33.5°F0.8°C 95% Calm Calm -- 29.89 in1012.2 mb 0.02 in0.5 mm 0.00 in0.0 mm 0.12 in3.0 mm
03:50 AM 34.8°F1.6°C 33.5°F0.8°C 95% Calm Calm -- 29.89 in1012.2 mb 0.02 in0.5 mm 0.00 in0.0 mm 0.11 in2.8 mm
03:40 AM 34.8°F1.6°C 33.5°F0.8°C 95% Calm Calm -- 29.88 in1011.9 mb 0.02 in0.5 mm 0.00 in0.0 mm 0.11 in2.8 mm
03:30 AM 34.8°F1.6°C 33.5°F0.8°C 95% Calm Calm -- 29.88 in1011.9 mb 0.02 in0.5 mm 0.00 in0.0 mm 0.11 in2.8 mm
03:20 AM 34.7°F1.5°C 33.4°F0.8°C 95% Calm Calm -- 29.88 in1011.9 mb 0.02 in0.5 mm 0.00 in0.0 mm 0.10 in2.5 mm
03:10 AM 34.5°F1.4°C 33.2°F0.7°C 95% Calm Calm 3.0 mph4.8 kmh 29.88 in1011.9 mb 0.03 in0.8 mm 0.00 in0.0 mm 0.10 in2.5 mm
03:00 AM 34.4°F1.3°C 33.1°F0.6°C 95% Calm Calm 4.0 mph6.4 kmh 29.86 in1011.2 mb 0.04 in1.0 mm 0.00 in0.0 mm 0.10 in2.5 mm
02:50 AM 34.5°F1.4°C 33.2°F0.7°C 95% Calm Calm 2.0 mph3.2 kmh 29.86 in1011.2 mb 0.04 in1.0 mm 0.00 in0.0 mm 0.09 in2.3 mm
02:40 AM 34.4°F1.3°C 33.1°F0.6°C 95% Calm Calm 2.0 mph3.2 kmh 29.86 in1011.2 mb 0.04 in1.0 mm 0.00 in0.0 mm 0.09 in2.3 mm
02:30 AM 34.4°F1.3°C 33.1°F0.6°C 95% Calm Calm 1.0 mph1.6 kmh 29.87 in1011.5 mb 0.05 in1.3 mm 0.06 in1.5 mm 0.09 in2.3 mm
02:20 AM 34.4°F1.3°C 33.1°F0.6°C 95% Calm Calm 4.0 mph6.4 kmh 29.86 in1011.2 mb 0.04 in1.0 mm 0.00 in0.0 mm 0.08 in2.0 mm
02:10 AM 34.4°F1.3°C 33.1°F0.6°C 95% Calm Calm 4.0 mph6.4 kmh 29.86 in1011.2 mb 0.04 in1.0 mm 0.06 in1.5 mm 0.07 in1.8 mm
02:00 AM 34.2°F1.2°C 32.9°F0.5°C 95% 1.0 mph NE1.6 kmh NE 7.0 mph11.3 kmh 29.85 in1010.8 mb 0.03 in0.8 mm 0.00 in0.0 mm 0.06 in1.5 mm
01:50 AM 34.1°F1.2°C 32.8°F0.4°C 95% Calm Calm 4.0 mph6.4 kmh 29.85 in1010.8 mb 0.03 in0.8 mm 0.00 in0.0 mm 0.05 in1.3 mm
01:40 AM 34.0°F1.1°C 32.7°F0.4°C 95% Calm Calm 7.0 mph11.3 kmh 29.84 in1010.5 mb 0.04 in1.0 mm 0.06 in1.5 mm 0.05 in1.3 mm
01:30 AM 33.9°F1.1°C 32.6°F0.3°C 95% Calm Calm 4.0 mph6.4 kmh 29.84 in1010.5 mb 0.03 in0.8 mm 0.00 in0.0 mm 0.04 in1.0 mm
01:20 AM 33.9°F1.1°C 32.6°F0.3°C 95% Calm Calm 5.0 mph8.0 kmh 29.84 in1010.5 mb 0.03 in0.8 mm 0.00 in0.0 mm 0.04 in1.0 mm
01:10 AM 33.8°F1.0°C 32.5°F0.3°C 95% Calm Calm 4.0 mph6.4 kmh 29.84 in1010.5 mb 0.03 in0.8 mm 0.00 in0.0 mm 0.03 in0.8 mm
01:00 AM 33.7°F0.9°C 32.4°F0.2°C 95% 1.0 mph NE1.6 kmh NE 4.0 mph6.4 kmh 29.84 in1010.5 mb 0.03 in0.8 mm 0.01 in0.3 mm 0.03 in0.8 mm
12:50 AM 33.6°F0.9°C 32.3°F0.2°C 95% 1.0 mph NE1.6 kmh NE 4.0 mph6.4 kmh 29.85 in1010.8 mb 0.02 in0.5 mm 0.06 in1.5 mm 0.02 in0.5 mm
12:40 AM 33.5°F0.8°C 32.2°F0.1°C 95% 1.0 mph ENE1.6 kmh ENE 6.0 mph9.7 kmh 29.85 in1010.8 mb 0.01 in0.3 mm 0.00 in0.0 mm 0.01 in0.3 mm
12:30 AM 33.5°F0.8°C 32.0°F0.0°C 94% 1.0 mph ENE1.6 kmh ENE 6.0 mph9.7 kmh 29.85 in1010.8 mb 0.02 in0.5 mm 0.00 in0.0 mm 0.01 in0.3 mm
12:20 AM 33.4°F0.8°C 31.9°F-0.1°C 94% Calm Calm 4.0 mph6.4 kmh 29.85 in1010.8 mb 0.03 in0.8 mm 0.06 in1.5 mm 0.01 in0.3 mm
12:10 AM 33.3°F0.7°C 31.8°F-0.1°C 94% 1.0 mph NNE1.6 kmh NNE 6.0 mph9.7 kmh 29.85 in1010.8 mb 0.02 in0.5 mm 0.00 in0.0 mm 0.02 in0.5 mm
12:00 AM 33.2°F0.7°C 31.7°F-0.2°C 94% 1.0 mph NE1.6 kmh NE 9.0 mph14.5 kmh 29.85 in1010.8 mb 0.02 in0.5 mm 0.00 in0.0 mm 0.02 in0.5 mm